Time;durP1;ratioP1;P1;durP2;ratioP2;P2;SDS_P1;SDS_P2;PMS_P1;PMS_P2;Temp;Humidity;BMP_temperature;BMP_pressure;BME280_temperature;BME280_humidity;BME280_pressure;Samples;Min_cycle;Max_cycle;Signal;HPM_P1;HPM_P2
2021/10/14 00:00:48;;;;;;;19.73;9.18;;;;;;;11.70;65.93;102312.78;5098431;28;20509;-64
2021/10/14 00:03:16;;;;;;;15.10;7.90;;;;;;;11.81;65.33;102300.63;5098305;28;20510;-65
2021/10/14 00:05:44;;;;;;;19.90;8.05;;;;;;;11.74;65.62;102305.63;5098620;28;20052;-65
2021/10/14 00:08:11;;;;;;;20.60;8.13;;;;;;;11.82;65.60;102316.06;5097855;28;20515;-65
2021/10/14 00:10:39;;;;;;;16.33;8.15;;;;;;;11.72;65.94;102310.59;5098320;28;20059;-65
2021/10/14 00:13:06;;;;;;;19.50;8.18;;;;;;;11.45;66.57;102307.34;5093587;28;20047;-65
2021/10/14 00:15:34;;;;;;;20.65;8.40;;;;;;;11.32;67.16;102308.75;5078085;28;20059;-64
2021/10/14 00:18:01;;;;;;;19.20;9.50;;;;;;;11.35;67.76;102307.34;5091805;28;20063;-65
2021/10/14 00:20:29;;;;;;;20.50;8.82;;;;;;;11.29;67.62;102314.84;5097989;28;20052;-66
2021/10/14 00:22:56;;;;;;;20.55;8.00;;;;;;;11.23;67.88;102312.34;5097086;28;20507;-64
2021/10/14 00:25:23;;;;;;;17.80;6.88;;;;;;;11.03;68.45;102315.16;5098213;28;20058;-65
2021/10/14 00:27:51;;;;;;;16.10;7.28;;;;;;;10.99;68.83;102314.88;5079486;28;20771;-66
2021/10/14 00:30:19;;;;;;;15.07;7.00;;;;;;;10.86;68.87;102311.88;5097952;28;20059;-64
2021/10/14 00:32:46;;;;;;;15.20;6.45;;;;;;;10.99;68.33;102312.13;5097844;28;20047;-65
2021/10/14 00:35:14;;;;;;;18.98;6.82;;;;;;;10.79;68.69;102314.88;5096169;28;20056;-65
2021/10/14 00:37:41;;;;;;;14.88;6.93;;;;;;;10.92;69.47;102321.78;5096419;28;20063;-64
2021/10/14 00:40:09;;;;;;;15.38;6.40;;;;;;;11.13;68.14;102312.38;5097382;28;20059;-65
2021/10/14 00:42:37;;;;;;;14.63;7.00;;;;;;;10.63;69.89;102318.75;5111101;28;20050;-65
2021/10/14 00:45:04;;;;;;;16.35;6.80;;;;;;;10.87;69.46;102316.25;5118238;28;20139;-65
2021/10/14 00:47:31;;;;;;;17.77;6.80;;;;;;;11.00;68.95;102311.00;5117687;28;20043;-64
2021/10/14 00:49:59;;;;;;;18.40;7.03;;;;;;;11.13;68.39;102315.97;5118017;28;20074;-64
2021/10/14 00:52:26;;;;;;;12.07;6.03;;;;;;;11.14;68.10;102306.56;5118035;28;20074;-66
2021/10/14 00:54:55;;;;;;;16.80;7.10;;;;;;;11.23;67.48;102309.59;5117965;28;20520;-66
2021/10/14 00:57:23;;;;;;;17.92;6.80;;;;;;;11.37;67.10;102312.63;5117362;28;20055;-65
2021/10/14 00:59:51;;;;;;;12.95;5.43;;;;;;;11.31;67.00;102307.09;5116117;28;20121;-63
2021/10/14 01:02:18;;;;;;;15.13;7.00;;;;;;;11.22;67.41;102302.44;5117594;28;20047;-65
2021/10/14 01:04:46;;;;;;;16.27;6.22;;;;;;;11.31;66.89;102301.56;5116659;28;20384;-64
2021/10/14 01:07:13;;;;;;;14.02;5.15;;;;;;;11.13;67.78;102298.59;5117141;28;20078;-64
2021/10/14 01:09:40;;;;;;;11.80;5.68;;;;;;;11.14;67.72;102297.50;5117862;28;20058;-65
2021/10/14 01:12:08;;;;;;;11.52;5.30;;;;;;;11.06;67.94;102298.88;5117611;28;20051;-65
2021/10/14 01:14:36;;;;;;;10.93;5.40;;;;;;;11.13;67.54;102293.06;5117542;28;20044;-66
2021/10/14 01:17:03;;;;;;;14.40;5.38;;;;;;;11.13;67.39;102293.91;5115241;28;20057;-64
2021/10/14 01:19:30;;;;;;;15.30;4.97;;;;;;;10.95;68.09;102294.47;5117251;28;20051;-65
2021/10/14 01:21:58;;;;;;;12.27;4.72;;;;;;;10.98;68.06;102290.34;5117502;28;20050;-65
2021/10/14 01:24:25;;;;;;;14.82;5.55;;;;;;;11.06;68.08;102285.09;5117369;28;20050;-64
2021/10/14 01:26:52;;;;;;;13.98;5.10;;;;;;;11.18;67.51;102287.53;5117013;28;20125;-64
2021/10/14 01:29:19;;;;;;;16.95;5.80;;;;;;;10.83;68.36;102284.84;5116949;28;20115;-64
2021/10/14 01:31:46;;;;;;;21.30;5.05;;;;;;;10.86;68.65;102287.88;5098300;28;20059;-65
2021/10/14 01:34:15;;;;;;;12.98;5.15;;;;;;;10.83;68.61;102293.94;5116786;28;20047;-64
2021/10/14 01:36:42;;;;;;;12.27;4.68;;;;;;;10.77;68.76;102286.78;5116868;28;20055;-64
2021/10/14 01:39:09;;;;;;;12.07;5.80;;;;;;;10.93;68.64;102291.16;5098764;28;20421;-65
2021/10/14 01:41:36;;;;;;;12.52;4.97;;;;;;;10.99;68.13;102280.97;5117139;28;20406;-64
2021/10/14 01:44:04;;;;;;;11.57;4.78;;;;;;;11.08;67.66;102284.81;5117064;28;20494;-64
2021/10/14 01:46:31;;;;;;;8.55;4.82;;;;;;;11.00;67.62;102275.16;5116306;28;20056;-65
2021/10/14 01:48:58;;;;;;;11.38;4.65;;;;;;;11.15;66.95;102280.66;5116661;28;20047;-65
2021/10/14 01:51:25;;;;;;;12.35;4.35;;;;;;;10.78;68.15;102277.41;5115777;28;20076;-65
2021/10/14 01:53:53;;;;;;;12.18;4.55;;;;;;;10.67;68.66;102280.47;5115427;28;20391;-65
2021/10/14 01:56:20;;;;;;;11.20;4.10;;;;;;;10.92;68.17;102281.25;5116463;28;20051;-65
2021/10/14 01:58:47;;;;;;;13.45;4.20;;;;;;;10.75;68.22;102280.72;5116532;28;20048;-65
2021/10/14 02:01:15;;;;;;;8.30;4.22;;;;;;;10.63;68.71;102277.44;5115163;28;20052;-65
2021/10/14 02:03:42;;;;;;;13.07;4.60;;;;;;;10.92;68.24;102274.91;5116411;28;20072;-63
2021/10/14 02:06:09;;;;;;;14.30;3.97;;;;;;;10.80;68.07;102266.09;5115136;28;20410;-64
2021/10/14 02:08:36;;;;;;;11.45;4.53;;;;;;;10.95;68.25;102271.59;5116120;28;20043;-63
2021/10/14 02:11:04;;;;;;;9.93;4.30;;;;;;;10.94;67.81;102264.44;5116494;28;20051;-65
2021/10/14 02:13:31;;;;;;;9.93;4.38;;;;;;;10.68;68.33;102262.81;5116155;28;20157;-63
2021/10/14 02:15:58;;;;;;;10.63;4.10;;;;;;;10.45;69.24;102260.59;5093235;28;20048;-63
2021/10/14 02:18:26;;;;;;;12.32;4.18;;;;;;;10.60;69.22;102263.38;5074951;28;20048;-65
2021/10/14 02:20:53;;;;;;;9.57;4.03;;;;;;;10.78;68.66;102258.13;5075614;28;20060;-63
2021/10/14 02:23:20;;;;;;;10.20;4.03;;;;;;;10.84;68.08;102245.16;5075647;28;20051;-63
2021/10/14 02:25:48;;;;;;;13.43;4.28;;;;;;;10.85;68.11;102249.56;5107912;28;20082;-63
2021/10/14 02:28:15;;;;;;;15.13;4.32;;;;;;;10.81;68.31;102254.00;5075333;28;20049;-65
2021/10/14 02:30:42;;;;;;;13.77;4.80;;;;;;;10.81;68.29;102251.25;5075222;28;20052;-65
2021/10/14 02:33:10;;;;;;;9.30;3.97;;;;;;;10.69;68.65;102251.50;5090556;28;20052;-64
2021/10/14 02:35:37;;;;;;;11.27;4.35;;;;;;;10.82;68.13;102256.47;5075621;28;20075;-65
2021/10/14 02:38:04;;;;;;;9.35;4.40;;;;;;;10.83;68.02;102255.34;5074988;28;20056;-64
2021/10/14 02:40:32;;;;;;;11.30;4.03;;;;;;;10.70;68.54;102249.59;5110548;28;20510;-65
2021/10/14 02:42:59;;;;;;;8.85;3.65;;;;;;;10.75;68.34;102255.91;5116129;28;20055;-64
2021/10/14 02:45:26;;;;;;;10.27;4.60;;;;;;;10.84;67.79;102256.19;5115809;28;20051;-65
2021/10/14 02:47:54;;;;;;;11.85;4.35;;;;;;;10.92;67.86;102256.44;5114024;28;20063;-64
2021/10/14 02:50:21;;;;;;;10.02;4.20;;;;;;;10.93;67.52;102251.75;5115655;28;20502;-65
2021/10/14 02:52:48;;;;;;;14.27;4.28;;;;;;;10.93;67.58;102252.56;5115869;28;20039;-63
2021/10/14 02:55:15;;;;;;;11.15;4.30;;;;;;;10.86;67.64;102254.78;5113688;28;20565;-65
2021/10/14 02:57:43;;;;;;;9.68;4.60;;;;;;;10.82;67.68;102255.63;5115557;28;20052;-64
2021/10/14 03:00:11;;;;;;;12.05;4.63;;;;;;;10.58;68.36;102255.38;5115496;28;20052;-64
2021/10/14 03:02:38;;;;;;;11.50;4.65;;;;;;;10.84;67.92;102253.44;5113926;28;20125;-65
2021/10/14 03:05:06;;;;;;;10.80;4.45;;;;;;;10.86;67.39;102246.53;5115670;28;20044;-65
2021/10/14 03:07:33;;;;;;;8.30;3.97;;;;;;;10.82;67.56;102242.69;5115487;28;20056;-65
2021/10/14 03:10:06;;;;;;;16.00;4.22;;;;;;;10.72;67.82;102252.91;5115537;28;20055;-62
2021/10/14 03:12:34;;;;;;;10.38;3.63;;;;;;;10.44;68.54;102256.22;5114304;28;20052;-63
2021/10/14 03:15:02;;;;;;;12.73;4.57;;;;;;;10.68;68.17;102262.81;5113713;28;20066;-63
2021/10/14 03:17:29;;;;;;;10.27;4.20;;;;;;;10.43;68.74;102247.09;5115069;28;20043;-62
2021/10/14 03:19:57;;;;;;;9.70;3.80;;;;;;;10.38;69.16;102246.28;5114263;28;20052;-63
2021/10/14 03:22:24;;;;;;;11.00;3.97;;;;;;;10.22;70.13;102252.91;5130596;28;20074;-63
2021/10/14 03:24:52;;;;;;;8.45;3.95;;;;;;;10.55;69.27;102261.44;5115773;28;20048;-63
2021/10/14 03:27:19;;;;;;;8.95;3.85;;;;;;;10.49;69.53;102258.97;5115290;28;20506;-62
2021/10/14 03:29:46;;;;;;;9.75;4.03;;;;;;;10.61;69.24;102268.59;5115406;28;20048;-63
2021/10/14 03:32:13;;;;;;;8.15;3.83;;;;;;;10.48;69.38;102263.63;5115217;28;20055;-63
2021/10/14 03:34:41;;;;;;;7.53;3.95;;;;;;;10.42;69.60;102266.66;5115484;28;20511;-62
2021/10/14 03:37:08;;;;;;;15.40;4.22;;;;;;;10.48;69.55;102262.81;5115361;28;20375;-63
2021/10/14 03:39:35;;;;;;;8.65;3.75;;;;;;;10.50;69.15;102258.69;5105241;28;20040;-62
2021/10/14 03:42:02;;;;;;;11.90;4.25;;;;;;;10.51;69.18;102262.28;5094999;28;20052;-62
2021/10/14 03:44:30;;;;;;;8.15;3.30;;;;;;;10.28;69.98;102263.63;5095148;28;20048;-63
2021/10/14 03:46:58;;;;;;;9.05;3.30;;;;;;;10.22;70.62;102266.66;5093105;28;20435;-63
2021/10/14 03:49:25;;;;;;;7.53;3.50;;;;;;;10.39;70.03;102264.47;5092917;28;20063;-63
2021/10/14 03:51:52;;;;;;;7.78;3.47;;;;;;;10.36;70.20;102268.59;5093081;28;20067;-63
2021/10/14 03:54:19;;;;;;;10.63;3.75;;;;;;;10.40;70.04;102266.09;5094888;28;20063;-63
2021/10/14 03:56:46;;;;;;;11.38;3.83;;;;;;;10.29;70.39;102267.22;5095007;28;20044;-63
2021/10/14 03:59:14;;;;;;;10.43;3.83;;;;;;;10.19;70.83;102274.38;5093310;28;20055;-64
2021/10/14 04:01:41;;;;;;;12.07;3.50;;;;;;;10.33;70.37;102274.66;5094387;28;20044;-63
2021/10/14 04:04:08;;;;;;;11.93;3.88;;;;;;;10.35;70.54;102274.38;5094950;28;20063;-63
2021/10/14 04:06:36;;;;;;;9.65;3.63;;;;;;;10.40;70.17;102269.69;5093484;28;20670;-63
2021/10/14 04:09:03;;;;;;;8.65;3.17;;;;;;;10.50;70.21;102275.22;5110115;28;20052;-63
2021/10/14 04:11:34;;;;;;;10.80;4.03;;;;;;;10.57;69.37;102273.00;5094333;28;20553;-62
2021/10/14 04:14:01;;;;;;;7.05;3.13;;;;;;;10.59;69.27;102269.97;5094897;28;20048;-63
2021/10/14 04:16:28;;;;;;;9.90;3.47;;;;;;;10.32;70.18;102272.97;5086350;28;20067;-63
2021/10/14 04:18:56;;;;;;;11.80;3.67;;;;;;;10.35;70.00;102263.34;5095226;28;20059;-63
2021/10/14 04:21:25;;;;;;;11.23;3.75;;;;;;;10.36;70.28;102268.59;5097007;28;20056;-64
2021/10/14 04:23:53;;;;;;;11.20;3.42;;;;;;;10.66;69.18;102276.03;5098345;28;20048;-63
2021/10/14 04:26:20;;;;;;;8.27;3.42;;;;;;;10.04;70.69;102273.47;5096995;28;20048;-64
2021/10/14 04:28:47;;;;;;;12.45;3.88;;;;;;;10.03;71.24;102272.66;5096518;28;20055;-65
2021/10/14 04:31:14;;;;;;;10.23;3.40;;;;;;;9.73;71.98;102283.56;5097543;28;20055;-62
2021/10/14 04:33:42;;;;;;;9.65;3.78;;;;;;;9.80;72.28;102273.13;5096697;28;20411;-63
2021/10/14 04:36:09;;;;;;;11.50;3.40;;;;;;;10.07;71.42;102278.44;5098026;28;20047;-64
2021/10/14 04:38:36;;;;;;;10.60;3.30;;;;;;;10.27;70.99;102269.41;5097578;28;20048;-64
2021/10/14 04:41:04;;;;;;;9.40;3.53;;;;;;;10.46;69.87;102273.28;5097610;28;20544;-63
2021/10/14 04:43:31;;;;;;;10.25;3.90;;;;;;;10.47;69.67;102278.53;5097941;28;20036;-63
2021/10/14 04:45:58;;;;;;;13.82;3.50;;;;;;;10.26;70.07;102279.59;5095979;28;20098;-63
2021/10/14 04:48:26;;;;;;;16.42;4.93;;;;;;;10.35;70.81;102277.13;5097438;28;20128;-62
2021/10/14 04:50:53;;;;;;;9.85;3.42;;;;;;;10.28;70.29;102280.16;5096166;28;20055;-64
2021/10/14 04:53:20;;;;;;;8.98;3.38;;;;;;;10.23;70.66;102272.69;5097871;28;20047;-63
2021/10/14 04:55:48;;;;;;;8.48;3.83;;;;;;;10.09;70.81;102274.31;5112760;28;20055;-62
2021/10/14 04:58:15;;;;;;;9.18;3.50;;;;;;;10.23;70.80;102273.81;5096277;28;20048;-62
2021/10/14 05:00:42;;;;;;;7.95;3.05;;;;;;;10.48;69.95;102276.59;5096783;28;20100;-62
2021/10/14 05:03:10;;;;;;;9.57;3.47;;;;;;;10.57;69.52;102278.50;5096981;28;20044;-63
2021/10/14 05:05:38;;;;;;;11.98;3.90;;;;;;;10.45;69.47;102280.72;5078664;28;20067;-62
2021/10/14 05:08:06;;;;;;;12.77;3.85;;;;;;;10.53;69.36;102273.84;5097062;28;20067;-62
2021/10/14 05:10:34;;;;;;;13.18;5.47;;;;;;;10.35;69.98;102279.88;5097367;28;20051;-62
2021/10/14 05:13:01;;;;;;;11.68;4.35;;;;;;;10.33;69.80;102277.41;5097192;28;20052;-64
2021/10/14 05:15:28;;;;;;;12.55;4.63;;;;;;;10.23;70.24;102277.41;5097208;28;20051;-64
2021/10/14 05:17:56;;;;;;;10.48;3.88;;;;;;;10.46;69.80;102287.06;5095715;28;20048;-65
2021/10/14 05:20:23;;;;;;;11.02;4.07;;;;;;;10.32;70.18;102269.41;5097322;28;20048;-64
2021/10/14 05:22:51;;;;;;;13.98;3.97;;;;;;;10.34;69.93;102281.81;5095787;28;20059;-64
2021/10/14 05:25:18;;;;;;;10.70;3.90;;;;;;;10.28;70.62;102290.34;5097212;28;20051;-63
2021/10/14 05:27:45;;;;;;;10.23;3.80;;;;;;;10.43;69.91;102291.19;5097142;28;20048;-64
2021/10/14 05:30:13;;;;;;;9.20;3.95;;;;;;;10.46;69.95;102287.88;5096837;28;20044;-63
2021/10/14 05:32:40;;;;;;;18.42;4.25;;;;;;;10.63;69.06;102290.38;5095215;28;20056;-63
2021/10/14 05:35:27;;;;;;;11.43;4.22;;;;;;;10.45;69.69;102288.16;5096930;28;20056;-63
2021/10/14 05:37:55;;;;;;;14.07;4.22;;;;;;;10.47;69.65;102286.78;5107596;28;20055;-64
2021/10/14 05:40:22;;;;;;;12.82;4.20;;;;;;;10.41;69.66;102289.81;5113285;28;20514;-62
2021/10/14 05:42:50;;;;;;;10.50;4.10;;;;;;;10.06;70.92;102296.03;5099946;28;20056;-64
2021/10/14 05:45:17;;;;;;;10.80;3.78;;;;;;;10.31;70.44;102287.03;5092980;28;20047;-66
2021/10/14 05:47:44;;;;;;;12.45;4.13;;;;;;;10.12;70.68;102287.56;5095097;28;20051;-66
2021/10/14 05:50:11;;;;;;;16.27;4.32;;;;;;;10.24;70.34;102284.56;5093640;28;20063;-65
2021/10/14 05:52:39;;;;;;;13.05;4.75;;;;;;;10.13;70.52;102288.38;5093241;28;20044;-63
2021/10/14 05:55:06;;;;;;;10.23;4.20;;;;;;;9.98;70.67;102286.41;5095724;28;20040;-63
2021/10/14 05:57:33;;;;;;;11.75;3.90;;;;;;;9.92;70.89;102284.72;5094464;28;20128;-63
2021/10/14 06:00:01;;;;;;;12.88;4.50;;;;;;;9.90;71.23;102280.59;5092904;28;20522;-63
2021/10/14 06:02:30;;;;;;;11.25;4.18;;;;;;;9.89;70.93;102281.69;5098257;28;20039;-63
2021/10/14 06:04:58;;;;;;;10.77;4.28;;;;;;;10.06;70.90;102282.28;5093761;28;20047;-63
2021/10/14 06:07:25;;;;;;;10.25;4.32;;;;;;;10.23;70.01;102279.31;5087826;28;20056;-65
2021/10/14 06:09:53;;;;;;;13.32;5.03;;;;;;;10.13;70.21;102274.59;5094939;28;20055;-63
2021/10/14 06:12:20;;;;;;;25.70;8.45;;;;;;;10.36;69.37;102282.34;5095015;28;20052;-62
2021/10/14 06:14:47;;;;;;;14.18;6.18;;;;;;;10.19;69.87;102274.38;5095691;28;20047;-64
2021/10/14 06:17:15;;;;;;;15.80;4.75;;;;;;;10.16;70.37;102277.63;5095212;28;20052;-64
2021/10/14 06:19:42;;;;;;;15.77;4.47;;;;;;;10.21;70.25;102279.59;5093622;28;20043;-65
2021/10/14 06:22:09;;;;;;;12.52;4.10;;;;;;;10.17;70.63;102278.47;5078310;28;20100;-66
2021/10/14 06:24:36;;;;;;;10.75;4.07;;;;;;;10.51;70.88;102276.03;5094069;28;20047;-65
2021/10/14 06:27:04;;;;;;;14.93;4.60;;;;;;;10.67;70.41;102285.97;5094704;28;20052;-64
2021/10/14 06:29:31;;;;;;;16.60;4.75;;;;;;;10.70;69.47;102283.50;5093676;28;20063;-65
2021/10/14 06:31:58;;;;;;;12.70;4.15;;;;;;;10.81;69.22;102284.31;5095641;28;20507;-66
2021/10/14 06:34:25;;;;;;;11.40;4.18;;;;;;;10.68;69.03;102282.09;5095317;28;20402;-66
2021/10/14 06:36:53;;;;;;;12.90;4.55;;;;;;;10.91;68.84;102282.34;5093663;28;20056;-66
2021/10/14 06:39:20;;;;;;;15.48;4.55;;;;;;;10.93;68.84;102280.13;5095397;28;20055;-62
2021/10/14 06:41:47;;;;;;;12.18;4.45;;;;;;;11.16;68.22;102279.56;5094535;28;20044;-66
2021/10/14 06:44:14;;;;;;;12.73;4.50;;;;;;;11.01;67.51;102276.84;5095191;28;20048;-62
2021/10/14 06:46:42;;;;;;;16.10;4.82;;;;;;;11.05;67.50;102283.44;5079888;28;20052;-64
2021/10/14 06:49:09;;;;;;;14.77;5.07;;;;;;;11.05;67.32;102277.91;5121257;27;20063;-63
2021/10/14 06:51:36;;;;;;;17.10;4.75;;;;;;;11.27;67.14;102278.44;5095079;28;20052;-62
2021/10/14 06:54:11;;;;;;;16.00;5.07;;;;;;;11.25;66.46;102283.41;5093086;28;20048;-64
2021/10/14 06:56:38;;;;;;;15.88;5.18;;;;;;;10.98;66.69;102280.13;5095223;28;20127;-62
2021/10/14 06:59:06;;;;;;;16.50;4.97;;;;;;;10.82;67.63;102275.75;5083927;28;20052;-68
2021/10/14 07:01:34;;;;;;;20.42;5.32;;;;;;;10.69;68.05;102279.06;5094354;28;20359;-65
2021/10/14 07:04:01;;;;;;;23.10;5.75;;;;;;;10.67;68.06;102284.03;5077279;28;20040;-66
2021/10/14 07:06:29;;;;;;;17.67;5.50;;;;;;;10.60;68.47;102280.72;5100320;28;20052;-65
2021/10/14 07:08:56;;;;;;;20.63;5.20;;;;;;;10.73;68.01;102280.16;5092001;28;20048;-64
2021/10/14 07:11:30;;;;;;;24.33;5.20;;;;;;;10.83;67.91;102276.56;5095450;28;20059;-65
2021/10/14 07:13:57;;;;;;;15.50;5.15;;;;;;;10.85;67.83;102272.44;5092872;28;20523;-66
2021/10/14 07:16:25;;;;;;;16.55;5.07;;;;;;;10.91;67.88;102276.03;5102969;28;20054;-65
2021/10/14 07:18:54;;;;;;;21.00;5.80;;;;;;;10.96;66.84;102271.34;5097278;28;20051;-66
2021/10/14 07:21:27;;;;;;;22.80;5.72;;;;;;;11.16;67.03;102274.03;5094018;28;20698;-66
2021/10/14 07:23:55;;;;;;;19.20;5.65;;;;;;;11.22;66.67;102264.66;5100156;28;20056;-66
2021/10/14 07:26:22;;;;;;;16.30;5.35;;;;;;;11.02;67.26;102278.47;5100914;28;20048;-65
2021/10/14 07:28:49;;;;;;;22.33;5.97;;;;;;;10.84;67.59;102273.56;5093795;28;20047;-65
2021/10/14 07:31:17;;;;;;;24.77;6.13;;;;;;;10.81;67.96;102273.28;5094910;28;20048;-65
2021/10/14 07:33:44;;;;;;;24.00;6.88;;;;;;;10.88;67.41;102277.41;5074735;28;20052;-65
2021/10/14 07:36:12;;;;;;;18.33;6.38;;;;;;;10.82;67.97;102273.00;5074663;28;20045;-65
2021/10/14 07:38:39;;;;;;;25.48;6.68;;;;;;;10.93;67.72;102271.06;5078622;28;20067;-65
2021/10/14 07:41:06;;;;;;;21.42;7.85;;;;;;;10.93;67.78;102273.81;5093951;28;20045;-64
2021/10/14 07:43:34;;;;;;;40.55;10.07;;;;;;;11.13;67.50;102276.53;5056135;28;20059;-65
2021/10/14 07:46:01;;;;;;;26.80;11.02;;;;;;;11.07;66.93;102267.44;5074241;28;20052;-64
2021/10/14 07:48:29;;;;;;;23.70;9.45;;;;;;;11.13;67.18;102276.53;5074111;28;20064;-65
2021/10/14 07:50:56;;;;;;;17.08;7.68;;;;;;;11.28;66.73;102270.97;5098525;28;20055;-65
2021/10/14 07:53:24;;;;;;;16.73;7.40;;;;;;;11.16;67.18;102267.69;5098984;28;20399;-66
2021/10/14 07:55:51;;;;;;;20.60;7.82;;;;;;;10.92;68.30;102269.41;5093641;28;20037;-65
2021/10/14 07:58:19;;;;;;;26.02;8.23;;;;;;;11.36;67.26;102262.13;5088436;28;20048;-65
2021/10/14 08:00:46;;;;;;;18.13;7.60;;;;;;;11.51;66.73;102264.81;5094601;28;20052;-66
2021/10/14 08:03:14;;;;;;;23.30;8.25;;;;;;;11.66;66.21;102272.25;5131993;27;20044;-66
2021/10/14 08:05:42;;;;;;;24.75;8.88;;;;;;;11.77;65.95;102271.09;5087923;28;20048;-66
2021/10/14 08:08:09;;;;;;;36.45;8.85;;;;;;;11.83;65.60;102269.94;5095945;28;20060;-66
2021/10/14 08:10:37;;;;;;;25.50;8.30;;;;;;;11.96;65.22;102261.06;5095864;28;20044;-65
2021/10/14 08:13:04;;;;;;;21.88;7.90;;;;;;;12.02;65.06;102263.50;5092435;28;20059;-66
2021/10/14 08:15:32;;;;;;;33.33;8.82;;;;;;;11.94;65.01;102271.56;5094417;28;20037;-66
2021/10/14 08:17:59;;;;;;;40.50;8.55;;;;;;;12.04;65.07;102271.50;5097636;28;20048;-67
2021/10/14 08:20:28;;;;;;;23.27;8.23;;;;;;;12.27;64.82;102259.75;5095464;28;20556;-66
2021/10/14 08:22:55;;;;;;;24.53;9.20;;;;;;;12.40;63.81;102259.91;5093115;28;20063;-66
2021/10/14 08:25:23;;;;;;;26.80;8.27;;;;;;;12.44;63.46;102258.22;5095347;28;20286;-66
2021/10/14 08:27:50;;;;;;;35.15;8.88;;;;;;;12.17;64.28;102257.03;5097359;28;20039;-65
2021/10/14 08:30:17;;;;;;;28.85;8.93;;;;;;;12.45;63.91;102254.34;5093976;28;20067;-66
2021/10/14 08:32:46;;;;;;;28.70;9.50;;;;;;;12.62;63.19;102259.47;5096992;28;20048;-65
2021/10/14 08:35:13;;;;;;;28.17;9.20;;;;;;;12.74;62.65;102245.25;5094686;28;20052;-65
2021/10/14 08:37:40;;;;;;;26.77;9.43;;;;;;;12.99;61.86;102251.34;5097085;28;20040;-66
2021/10/14 08:40:08;;;;;;;23.27;8.55;;;;;;;12.95;61.70;102253.06;5091633;28;20044;-66
2021/10/14 08:42:36;;;;;;;23.38;8.90;;;;;;;13.00;61.35;102253.03;5089453;28;20052;-66
2021/10/14 08:45:05;;;;;;;21.15;8.85;;;;;;;13.07;61.49;102252.69;5091117;28;20051;-66
2021/10/14 08:47:34;;;;;;;29.50;8.10;;;;;;;13.28;61.03;102245.81;5097525;28;20044;-66
2021/10/14 08:50:03;;;;;;;26.23;6.93;;;;;;;13.22;60.78;102247.00;5093634;28;20533;-65
2021/10/14 08:52:31;;;;;;;26.63;7.97;;;;;;;13.24;60.76;102242.81;5096473;28;20052;-65
2021/10/14 08:54:58;;;;;;;18.20;7.15;;;;;;;13.04;60.94;102247.75;5088966;28;20048;-65
2021/10/14 08:57:28;;;;;;;22.25;7.13;;;;;;;13.15;61.13;102244.59;5088450;28;20039;-66
2021/10/14 08:59:55;;;;;;;22.13;6.88;;;;;;;13.31;60.47;102248.84;5096781;28;20055;-67
2021/10/14 09:02:23;;;;;;;23.98;7.57;;;;;;;13.69;59.56;102246.97;5077439;28;20413;-65
2021/10/14 09:04:57;;;;;;;20.40;6.35;;;;;;;13.55;59.65;102252.41;5102762;28;20045;-66
2021/10/14 09:07:27;;;;;;;18.98;6.28;;;;;;;13.33;59.84;102243.84;5087659;28;20052;-65
2021/10/14 09:10:04;;;;;;;18.40;5.95;;;;;;;13.33;59.76;102241.06;5107204;28;20084;-66
2021/10/14 09:12:36;;;;;;;18.15;4.97;;;;;;;13.62;59.11;102237.34;5077213;28;20052;-65
2021/10/14 09:15:11;;;;;;;13.73;4.70;;;;;;;13.56;58.45;102233.84;5103150;28;20051;-66
2021/10/14 09:17:38;;;;;;;19.92;4.80;;;;;;;13.97;58.48;102234.09;5096724;28;20047;-65
2021/10/14 09:20:31;;;;;;;19.77;5.53;;;;;;;13.80;58.06;102237.41;5097301;28;20048;-65
2021/10/14 09:23:27;;;;;;;13.73;5.03;;;;;;;13.93;57.75;102233.06;5096808;28;20055;-65
2021/10/14 09:25:54;;;;;;;14.68;4.35;;;;;;;13.59;58.47;102233.25;5080607;28;20048;-66
2021/10/14 09:28:26;;;;;;;17.50;4.72;;;;;;;13.62;58.40;102232.66;5097282;28;20052;-66
2021/10/14 09:30:59;;;;;;;17.83;5.65;;;;;;;13.86;57.89;102230.66;5092172;28;20052;-64
2021/10/14 09:33:46;;;;;;;22.50;5.35;;;;;;;14.09;57.37;102223.41;5084946;28;20494;-65
2021/10/14 09:36:21;;;;;;;18.77;7.18;;;;;;;14.17;56.73;102217.19;5085428;28;20047;-65
2021/10/14 09:39:03;;;;;;;25.77;11.32;;;;;;;14.05;56.24;102214.06;5085142;28;20056;-65
2021/10/14 09:41:36;;;;;;;18.38;8.05;;;;;;;13.82;56.46;102223.25;5086204;28;20048;-65
2021/10/14 09:44:12;;;;;;;21.38;8.07;;;;;;;14.09;56.42;102218.69;5079962;28;20542;-67
2021/10/14 09:46:45;;;;;;;18.20;6.80;;;;;;;14.10;55.27;102211.19;5073644;28;20060;-66
2021/10/14 09:49:16;;;;;;;16.45;7.88;;;;;;;14.05;54.66;102219.59;5106089;28;20487;-65
2021/10/14 09:51:44;;;;;;;21.20;8.45;;;;;;;14.10;54.76;102217.56;5094485;28;20044;-65
2021/10/14 09:54:12;;;;;;;18.75;7.75;;;;;;;14.15;54.41;102211.94;5091097;28;20063;-65
2021/10/14 09:56:39;;;;;;;16.13;9.00;;;;;;;14.34;54.43;102206.41;5094130;28;20052;-67
2021/10/14 09:59:07;;;;;;;15.73;9.10;;;;;;;14.38;54.45;102202.72;5093744;28;20052;-66
2021/10/14 10:01:37;;;;;;;25.50;14.88;;;;;;;14.36;54.31;102198.63;5095429;28;20063;-65
2021/10/14 10:04:05;;;;;;;16.60;11.30;;;;;;;14.54;54.01;102203.28;5088024;28;20044;-67
2021/10/14 10:06:34;;;;;;;20.42;10.02;;;;;;;14.55;53.61;102199.41;5067962;28;20048;-65
2021/10/14 10:09:23;;;;;;;13.65;6.00;;;;;;;14.48;53.14;102196.19;5085928;28;20158;-67
2021/10/14 10:11:52;;;;;;;10.43;4.30;;;;;;;14.43;52.56;102193.50;5088352;28;20586;-65
2021/10/14 10:14:21;;;;;;;21.87;3.93;;;;;;;14.54;52.33;102194.97;5097500;28;20055;-65
2021/10/14 10:17:00;;;;;;;11.27;2.75;;;;;;;14.84;51.71;102183.31;5077238;28;20055;-66
2021/10/14 10:19:48;;;;;;;12.02;2.92;;;;;;;14.74;51.57;102177.13;5094920;28;20056;-66
2021/10/14 10:22:42;;;;;;;10.88;3.28;;;;;;;14.73;51.54;102179.09;5103330;28;20043;-64
2021/10/14 10:25:23;;;;;;;12.50;3.35;;;;;;;14.58;51.35;102182.97;5090171;28;20056;-65
2021/10/14 10:27:52;;;;;;;13.77;3.90;;;;;;;14.68;52.39;102179.16;5092731;28;20039;-66
2021/10/14 10:30:39;;;;;;;10.65;3.05;;;;;;;14.62;52.15;102174.88;5101726;28;20044;-66
2021/10/14 10:33:08;;;;;;;11.00;3.03;;;;;;;14.88;51.22;102166.88;5100211;28;20052;-66
2021/10/14 10:35:46;;;;;;;10.82;3.33;;;;;;;14.69;50.53;102166.97;5095129;28;20425;-66
2021/10/14 10:38:18;;;;;;;12.98;4.07;;;;;;;14.80;51.33;102165.66;5083796;28;20048;-65
2021/10/14 10:40:49;;;;;;;19.60;8.10;;;;;;;14.67;51.60;102163.66;5112559;28;20051;-67
2021/10/14 10:43:22;;;;;;;20.85;8.82;;;;;;;14.91;50.84;102160.72;5094710;28;20051;-65
2021/10/14 10:45:54;;;;;;;18.50;6.40;;;;;;;15.05;50.75;102167.91;5093722;28;20491;-64
2021/10/14 10:48:38;;;;;;;13.68;5.38;;;;;;;15.04;50.61;102155.19;5094318;28;20055;-66
2021/10/14 10:51:09;;;;;;;16.25;5.22;;;;;;;15.02;50.58;102148.28;5094399;28;20051;-65
2021/10/14 10:53:42;;;;;;;8.77;3.88;;;;;;;15.03;50.84;102152.72;5093567;28;20036;-72
2021/10/14 10:56:30;;;;;;;14.48;4.90;;;;;;;15.02;50.73;102153.84;5092990;28;20055;-64
2021/10/14 10:58:58;;;;;;;9.25;3.80;;;;;;;15.02;50.10;102151.06;5094040;28;20059;-65
2021/10/14 11:01:27;;;;;;;16.33;4.22;;;;;;;15.23;50.05;102147.56;5084802;28;20051;-64
2021/10/14 11:04:00;;;;;;;13.85;4.00;;;;;;;15.39;49.54;102140.56;5093210;28;20055;-65
2021/10/14 11:06:32;;;;;;;12.02;3.10;;;;;;;15.36;49.26;102143.94;5087658;28;20060;-65
2021/10/14 11:09:05;;;;;;;12.20;3.20;;;;;;;15.30;49.29;102138.81;5093487;28;20055;-67
2021/10/14 11:11:34;;;;;;;10.98;3.53;;;;;;;15.69;49.75;102134.31;5089613;28;20407;-66
2021/10/14 11:14:02;;;;;;;11.00;3.47;;;;;;;15.60;48.80;102138.19;5092951;28;20044;-67
2021/10/14 11:16:31;;;;;;;12.27;3.33;;;;;;;15.72;48.98;102130.94;5092958;28;20067;-66
2021/10/14 11:18:59;;;;;;;9.32;3.28;;;;;;;15.62;48.32;102127.59;5092788;28;20059;-68
2021/10/14 11:21:40;;;;;;;12.02;3.53;;;;;;;15.50;48.65;102125.31;5090769;28;20053;-66
2021/10/14 11:24:08;;;;;;;12.57;3.05;;;;;;;15.47;48.88;102125.13;5085277;28;20040;-67
2021/10/14 11:26:41;;;;;;;9.40;2.50;;;;;;;15.43;48.43;102118.56;5097737;28;20044;-67